Joseph Sause — WTW9258 — position and weather

sailwx.info

Track history (hours):
 
Tides and Currents Weather Stations Pressure Air Temp Water Temp Dewpoint Dewpoint Depression Visibility Wind Speed Wind Dir Waves Ship Positions

Joseph Sause

Owner: Sause Bros. Inc., COOS BAY, OR. More information available from US FCC via Universal Licensing System and Coast Guard Vessel Documentation Center.

Last reported at 2018-Jan-20 19:49 UTC. Time now 2018-Jan-21 22:30 UTC.
Position N 47°17' W 122°25'.

Type: Tow > 200 m length. MMSI: 367007880.

Date/timePositionNaut miles runAvg speedWind from/ knotsBaromVisibWave heightAir tempDewpointWater temp
2018-Jan-20 19:49N 47°17' W 122°25'1 0.0
2018-Jan-19 21:27N 47°16' W 122°25'0 0.3
2018-Jan-19 21:00N 47°16' W 122°25'1 1.3
2018-Jan-19 20:25N 47°16' W 122°26'0 0.0
2018-Jan-19 19:58N 47°16' W 122°26'0 0.0
2018-Jan-19 19:28N 47°16' W 122°26'0 0.0
2018-Jan-19 18:58N 47°16' W 122°26'0 0.0
2018-Jan-19 18:28N 47°16' W 122°26'0 0.0
2018-Jan-19 17:58N 47°16' W 122°26'0 0.0
2018-Jan-19 17:31N 47°16' W 122°26'0 0.0
2018-Jan-19 16:58N 47°16' W 122°26'0 0.0
2018-Jan-19 16:30N 47°16' W 122°26'0 0.0
2018-Jan-19 16:00N 47°16' W 122°26'0 0.0
2018-Jan-19 15:30N 47°16' W 122°26'1 1.5
2018-Jan-19 14:58N 47°16' W 122°25'0 0.0
2018-Jan-19 14:28N 47°16' W 122°25'0 0.0
2018-Jan-19 13:58N 47°16' W 122°25'0 0.0
2018-Jan-19 13:28N 47°16' W 122°25'0 0.0
2018-Jan-19 12:58N 47°16' W 122°25'0 0.0
2018-Jan-19 12:25N 47°16' W 122°25'0 0.0
2018-Jan-19 11:58N 47°16' W 122°25'0 0.0
2018-Jan-19 11:19N 47°16' W 122°25'0 0.0
2018-Jan-19 10:52N 47°16' W 122°25'0 0.0
2018-Jan-19 10:28N 47°16' W 122°25'0 0.0
2018-Jan-19 09:58N 47°16' W 122°25'0 0.0
2018-Jan-19 09:22N 47°16' W 122°25'0 0.0
2018-Jan-19 08:55N 47°16' W 122°25'0 0.0
2018-Jan-19 08:22N 47°16' W 122°25'0 0.0
2018-Jan-19 07:58N 47°16' W 122°25'0 0.0
2018-Jan-19 07:28N 47°16' W 122°25'0 0.0
2018-Jan-19 05:10N 47°16' W 122°25'0 0.0
2018-Jan-19 04:58N 47°16' W 122°25'0 0.0
2018-Jan-19 04:25N 47°16' W 122°25'0 0.0
2018-Jan-19 03:52N 47°16' W 122°25'0 0.0
2018-Jan-19 03:28N 47°16' W 122°25'0 0.0
2018-Jan-19 02:58N 47°16' W 122°25'0 0.0
2018-Jan-19 02:28N 47°16' W 122°25'0 0.0
2018-Jan-19 01:55N 47°16' W 122°25'0 0.0
2018-Jan-19 01:28N 47°16' W 122°25'0 0.0
2018-Jan-19 00:58N 47°16' W 122°25'0 0.0
2018-Jan-19 00:28N 47°16' W 122°25'0 0.0
2018-Jan-18 23:58N 47°16' W 122°25'0 0.0
2018-Jan-18 23:28N 47°16' W 122°25'0 0.0
2018-Jan-18 22:58N 47°16' W 122°25'0 0.0
2018-Jan-18 22:22N 47°16' W 122°25'0 0.0
2018-Jan-18 21:46N 47°16' W 122°25'0 0.0
2018-Jan-18 21:28N 47°16' W 122°25'0 0.0
2018-Jan-18 20:58N 47°16' W 122°25'0 0.0
2018-Jan-18 19:28N 47°16' W 122°25'0 0.0
2018-Jan-18 18:46N 47°16' W 122°25'0 1.4
2018-Jan-18 18:30N 47°16' W 122°25'1 0.1
2018-Jan-18 06:13N 47°16' W 122°24'0 0.1
2018-Jan-18 06:00N 47°16' W 122°24'0 0.1
2018-Jan-18 05:30N 47°16' W 122°24'2 3.5
2018-Jan-18 05:00N 47°17' W 122°26'1 2.5
2018-Jan-18 04:30N 47°18' W 122°27'1 2.7
2018-Jan-18 04:00N 47°19' W 122°28'4 7.6
2018-Jan-18 03:30N 47°22' W 122°24'3 6.0
2018-Jan-18 03:00N 47°25' W 122°23'4 8.0
2018-Jan-18 02:30N 47°28' W 122°26'4 7.8
2018-Jan-18 02:00N 47°32' W 122°27'4 7.3
2018-Jan-18 01:30N 47°36' W 122°28'3 7.0
2018-Jan-18 01:00N 47°39' W 122°28'6 6.3
2018-Jan-18 00:00N 47°45' W 122°27'0 6.2
2018-Jan-17 23:57N 47°46' W 122°27'  
Track history (hours):
 
Tides and Currents Weather Stations Pressure Air Temp Water Temp Dewpoint Dewpoint Depression Visibility Wind Speed Wind Dir Waves Ship Positions

Joseph Sause

Owner: Sause Bros. Inc., COOS BAY, OR. More information available from US FCC via Universal Licensing System and Coast Guard Vessel Documentation Center.

Last reported at 2018-Jan-20 19:49 UTC. Time now 2018-Jan-21 22:30 UTC.
Position N 47°17' W 122°25'.

Type: Tow > 200 m length. MMSI: 367007880.

Date/timePositionNaut miles runAvg speedWind from/ knotsBaromVisibWave heightAir tempDewpointWater temp
2018-Jan-20 19:49N 47°17' W 122°25'1 0.0
2018-Jan-19 21:27N 47°16' W 122°25'0 0.3
2018-Jan-19 21:00N 47°16' W 122°25'1 1.3
2018-Jan-19 20:25N 47°16' W 122°26'0 0.0
2018-Jan-19 19:58N 47°16' W 122°26'0 0.0
2018-Jan-19 19:28N 47°16' W 122°26'0 0.0
2018-Jan-19 18:58N 47°16' W 122°26'0 0.0
2018-Jan-19 18:28N 47°16' W 122°26'0 0.0
2018-Jan-19 17:58N 47°16' W 122°26'0 0.0
2018-Jan-19 17:31N 47°16' W 122°26'0 0.0
2018-Jan-19 16:58N 47°16' W 122°26'0 0.0
2018-Jan-19 16:30N 47°16' W 122°26'0 0.0
2018-Jan-19 16:00N 47°16' W 122°26'0 0.0
2018-Jan-19 15:30N 47°16' W 122°26'1 1.5
2018-Jan-19 14:58N 47°16' W 122°25'0 0.0
2018-Jan-19 14:28N 47°16' W 122°25'0 0.0
2018-Jan-19 13:58N 47°16' W 122°25'0 0.0
2018-Jan-19 13:28N 47°16' W 122°25'0 0.0
2018-Jan-19 12:58N 47°16' W 122°25'0 0.0
2018-Jan-19 12:25N 47°16' W 122°25'0 0.0
2018-Jan-19 11:58N 47°16' W 122°25'0 0.0
2018-Jan-19 11:19N 47°16' W 122°25'0 0.0
2018-Jan-19 10:52N 47°16' W 122°25'0 0.0
2018-Jan-19 10:28N 47°16' W 122°25'0 0.0
2018-Jan-19 09:58N 47°16' W 122°25'0 0.0
2018-Jan-19 09:22N 47°16' W 122°25'0 0.0
2018-Jan-19 08:55N 47°16' W 122°25'0 0.0
2018-Jan-19 08:22N 47°16' W 122°25'0 0.0
2018-Jan-19 07:58N 47°16' W 122°25'0 0.0
2018-Jan-19 07:28N 47°16' W 122°25'0 0.0
2018-Jan-19 05:10N 47°16' W 122°25'0 0.0
2018-Jan-19 04:58N 47°16' W 122°25'0 0.0
2018-Jan-19 04:25N 47°16' W 122°25'0 0.0
2018-Jan-19 03:52N 47°16' W 122°25'0 0.0
2018-Jan-19 03:28N 47°16' W 122°25'0 0.0
2018-Jan-19 02:58N 47°16' W 122°25'0 0.0
2018-Jan-19 02:28N 47°16' W 122°25'0 0.0
2018-Jan-19 01:55N 47°16' W 122°25'0 0.0
2018-Jan-19 01:28N 47°16' W 122°25'0 0.0
2018-Jan-19 00:58N 47°16' W 122°25'0 0.0
2018-Jan-19 00:28N 47°16' W 122°25'0 0.0
2018-Jan-18 23:58N 47°16' W 122°25'0 0.0
2018-Jan-18 23:28N 47°16' W 122°25'0 0.0
2018-Jan-18 22:58N 47°16' W 122°25'0 0.0
2018-Jan-18 22:22N 47°16' W 122°25'0 0.0
2018-Jan-18 21:46N 47°16' W 122°25'0 0.0
2018-Jan-18 21:28N 47°16' W 122°25'0 0.0
2018-Jan-18 20:58N 47°16' W 122°25'0 0.0
2018-Jan-18 19:28N 47°16' W 122°25'0 0.0
2018-Jan-18 18:46N 47°16' W 122°25'0 1.4
2018-Jan-18 18:30N 47°16' W 122°25'1 0.1
2018-Jan-18 06:13N 47°16' W 122°24'0 0.1
2018-Jan-18 06:00N 47°16' W 122°24'0 0.1
2018-Jan-18 05:30N 47°16' W 122°24'2 3.5
2018-Jan-18 05:00N 47°17' W 122°26'1 2.5
2018-Jan-18 04:30N 47°18' W 122°27'1 2.7
2018-Jan-18 04:00N 47°19' W 122°28'4 7.6
2018-Jan-18 03:30N 47°22' W 122°24'3 6.0
2018-Jan-18 03:00N 47°25' W 122°23'4 8.0
2018-Jan-18 02:30N 47°28' W 122°26'4 7.8
2018-Jan-18 02:00N 47°32' W 122°27'4 7.3
2018-Jan-18 01:30N 47°36' W 122°28'3 7.0
2018-Jan-18 01:00N 47°39' W 122°28'6 6.3
2018-Jan-18 00:00N 47°45' W 122°27'0 6.2
2018-Jan-17 23:57N 47°46' W 122°27'  

Dump ship's entire track history